createdAt,value
2018-03-25T00:00:20.253Z,40.30
2018-03-25T00:01:20.234Z,41.20
2018-03-25T00:02:20.204Z,41.30
2018-03-25T00:03:20.293Z,42.40
2018-03-25T00:04:20.159Z,45.10
2018-03-25T00:05:20.135Z,43.60
2018-03-25T00:06:20.117Z,44.40
2018-03-25T00:07:20.094Z,41.00
2018-03-25T00:08:20.073Z,40.90
2018-03-25T00:09:20.070Z,43.00
2018-03-25T00:10:20.032Z,41.90
2018-03-25T00:11:20.002Z,42.60
2018-03-25T00:12:19.986Z,42.50
2018-03-25T00:13:19.993Z,45.10
2018-03-25T00:14:19.943Z,41.30
2018-03-25T00:15:19.919Z,44.10
2018-03-25T00:16:19.900Z,42.70
2018-03-25T00:17:19.875Z,43.80
2018-03-25T00:18:19.853Z,44.60
2018-03-25T00:19:19.833Z,42.60
2018-03-25T00:20:19.812Z,42.10
2018-03-25T00:21:19.785Z,46.20
2018-03-25T00:22:19.763Z,46.60
2018-03-25T00:23:19.745Z,44.50
2018-03-25T00:24:19.718Z,46.00
2018-03-25T00:25:19.698Z,46.10
2018-03-25T00:26:19.674Z,49.10
2018-03-25T00:27:19.660Z,45.10
2018-03-25T00:28:19.631Z,44.20
2018-03-25T00:29:19.609Z,46.90
2018-03-25T00:30:19.593Z,43.60
2018-03-25T00:31:19.562Z,47.10
2018-03-25T00:32:19.540Z,45.20
2018-03-25T00:33:19.542Z,42.30
2018-03-25T00:34:19.501Z,45.40
2018-03-25T00:35:19.479Z,43.70
2018-03-25T00:36:19.455Z,46.70
2018-03-25T00:37:19.433Z,44.30
2018-03-25T00:38:19.410Z,45.80
2018-03-25T00:39:19.428Z,45.50
2018-03-25T00:40:19.364Z,43.50
2018-03-25T00:41:19.344Z,44.40
2018-03-25T00:42:19.369Z,44.70
2018-03-25T00:43:19.298Z,45.20
2018-03-25T00:44:19.276Z,44.40
2018-03-25T00:45:19.252Z,44.90
2018-03-25T00:46:19.233Z,46.40
2018-03-25T00:47:19.211Z,42.80
2018-03-25T00:48:19.187Z,43.40
2018-03-25T00:49:19.164Z,44.20
2018-03-25T00:50:19.143Z,43.00
2018-03-25T00:51:19.125Z,45.00
2018-03-25T00:52:19.099Z,42.90
2018-03-25T00:53:19.077Z,44.40
2018-03-25T00:54:19.068Z,45.50
2018-03-25T00:55:19.031Z,43.10
2018-03-25T00:56:19.058Z,44.10
2018-03-25T00:57:18.988Z,47.70
2018-03-25T00:58:18.967Z,46.60
2018-03-25T00:59:18.946Z,45.90
2018-03-25T01:00:18.920Z,45.70
2018-03-25T01:01:18.896Z,46.60
2018-03-25T01:02:18.886Z,45.90
2018-03-25T01:03:18.851Z,47.70
2018-03-25T01:04:18.833Z,46.80
2018-03-25T01:05:18.808Z,49.60
2018-03-25T01:06:18.793Z,46.70
2018-03-25T01:07:18.769Z,48.70
2018-03-25T01:08:18.743Z,49.60
2018-03-25T01:09:18.722Z,50.50
2018-03-25T01:10:18.703Z,48.10
2018-03-25T01:11:18.680Z,45.80
2018-03-25T01:12:18.653Z,47.50
2018-03-25T01:13:18.631Z,48.60
2018-03-25T01:14:18.611Z,48.90
2018-03-25T01:15:18.591Z,47.80
2018-03-25T01:16:18.615Z,52.60
2018-03-25T01:17:18.546Z,49.60
2018-03-25T01:18:18.523Z,50.00
2018-03-25T01:19:18.500Z,49.80
2018-03-25T01:20:18.535Z,49.30
2018-03-25T01:21:18.461Z,48.00
2018-03-25T01:22:18.437Z,50.90
2018-03-25T01:23:18.422Z,47.80
2018-03-25T01:24:18.391Z,49.10
2018-03-25T01:25:18.366Z,51.60
2018-03-25T01:26:18.350Z,49.30
2018-03-25T01:27:18.323Z,52.20
2018-03-25T01:28:18.411Z,47.70
2018-03-25T01:29:18.280Z,52.50
2018-03-25T01:30:18.411Z,51.80
2018-03-25T01:31:18.231Z,47.70
2018-03-25T01:32:18.213Z,48.50
2018-03-25T01:33:18.191Z,48.60
2018-03-25T01:34:18.171Z,49.30
2018-03-25T01:35:18.147Z,52.90
2018-03-25T01:36:18.123Z,51.70
2018-03-25T01:37:18.096Z,48.00
2018-03-25T01:38:18.079Z,48.80
2018-03-25T01:39:18.055Z,46.60
2018-03-25T01:40:18.032Z,49.60
2018-03-25T01:41:18.013Z,47.10
2018-03-25T01:42:17.992Z,48.90
2018-03-25T01:43:17.964Z,48.10
2018-03-25T01:44:17.942Z,48.00
2018-03-25T01:45:17.921Z,48.80
2018-03-25T01:46:17.899Z,48.60
2018-03-25T01:47:17.876Z,50.00
2018-03-25T01:48:17.855Z,48.20
2018-03-25T01:49:17.835Z,47.20
2018-03-25T01:50:17.810Z,46.30
2018-03-25T01:51:17.795Z,48.40
2018-03-25T01:52:17.767Z,48.20
2018-03-25T01:53:17.747Z,49.90
2018-03-25T01:54:17.725Z,53.80
2018-03-25T01:55:17.701Z,51.00
2018-03-25T01:56:17.725Z,50.60
2018-03-25T01:57:17.652Z,48.80
2018-03-25T01:58:17.636Z,46.90
2018-03-25T01:59:17.613Z,49.70
2018-03-25T02:00:17.588Z,48.20
2018-03-25T02:01:17.565Z,46.60
2018-03-25T02:02:17.541Z,50.00
2018-03-25T02:03:17.527Z,47.20
2018-03-25T02:04:17.500Z,48.90
2018-03-25T02:05:17.476Z,48.30
2018-03-25T02:06:17.454Z,44.80
2018-03-25T02:07:17.433Z,47.10
2018-03-25T02:08:17.413Z,48.30
2018-03-25T02:09:17.392Z,47.50
2018-03-25T02:10:17.366Z,46.60
2018-03-25T02:11:17.342Z,47.40
2018-03-25T02:12:17.324Z,47.90
2018-03-25T02:13:17.307Z,46.90
2018-03-25T02:14:17.276Z,46.10
2018-03-25T02:15:17.258Z,47.20
2018-03-25T02:16:17.231Z,48.40
2018-03-25T02:17:17.207Z,46.60
2018-03-25T02:18:17.186Z,50.30
2018-03-25T02:19:17.165Z,49.10
2018-03-25T02:20:17.144Z,49.70
2018-03-25T02:21:17.123Z,46.20
2018-03-25T02:22:17.098Z,49.60
2018-03-25T02:23:17.073Z,48.90
2018-03-25T02:24:17.055Z,51.50
2018-03-25T02:25:17.033Z,47.40
2018-03-25T02:26:17.010Z,49.20
2018-03-25T02:27:16.996Z,50.80
2018-03-25T02:28:16.961Z,49.00
2018-03-25T02:29:16.938Z,49.60
2018-03-25T02:30:16.930Z,46.00
2018-03-25T02:31:16.901Z,47.00
2018-03-25T02:32:16.873Z,48.80
2018-03-25T02:33:16.849Z,47.00
2018-03-25T02:34:16.828Z,48.70
2018-03-25T02:35:16.810Z,48.70
2018-03-25T02:36:16.786Z,48.00
2018-03-25T02:37:16.761Z,48.20
2018-03-25T02:38:16.741Z,46.80
2018-03-25T02:39:16.717Z,50.10
2018-03-25T02:40:16.705Z,47.40
2018-03-25T02:41:16.671Z,49.50
2018-03-25T02:42:16.649Z,47.90
2018-03-25T02:43:16.628Z,47.80
2018-03-25T02:44:16.605Z,49.00
2018-03-25T02:45:16.634Z,47.60
2018-03-25T02:46:16.560Z,48.50
2018-03-25T02:47:16.546Z,47.70
2018-03-25T02:48:16.518Z,47.80
2018-03-25T02:49:16.495Z,44.60
2018-03-25T02:50:16.471Z,45.20
2018-03-25T02:51:16.504Z,45.00
2018-03-25T02:52:16.431Z,46.70
2018-03-25T02:53:16.408Z,49.30
2018-03-25T02:54:16.385Z,47.10
2018-03-25T02:55:16.363Z,49.80
2018-03-25T02:56:16.349Z,44.80
2018-03-25T02:57:16.333Z,47.60
2018-03-25T02:58:16.301Z,47.70
2018-03-25T02:59:16.273Z,48.00
2018-03-25T03:00:16.251Z,47.60
2018-03-25T03:01:16.264Z,45.90
2018-03-25T03:02:16.205Z,45.70
2018-03-25T03:03:16.241Z,45.70
2018-03-25T03:04:16.165Z,43.60
2018-03-25T03:05:16.138Z,45.80
2018-03-25T03:06:16.115Z,49.20
2018-03-25T03:07:16.196Z,45.40
2018-03-25T03:08:16.068Z,46.50
2018-03-25T03:09:16.045Z,45.50
2018-03-25T03:10:16.023Z,47.80
2018-03-25T03:11:16.105Z,44.30
2018-03-25T03:12:15.980Z,45.70
2018-03-25T03:13:15.958Z,49.80
2018-03-25T03:14:15.940Z,48.50
2018-03-25T03:15:15.925Z,47.70
2018-03-25T03:16:15.891Z,47.00
2018-03-25T03:17:15.982Z,45.60
2018-03-25T03:18:15.846Z,47.40
2018-03-25T03:19:15.824Z,46.90
2018-03-25T03:20:15.804Z,46.10
2018-03-25T03:21:15.781Z,48.00
2018-03-25T03:22:15.754Z,47.80
2018-03-25T03:23:15.737Z,46.80
2018-03-25T03:24:15.711Z,46.00
2018-03-25T03:25:15.694Z,51.80
2018-03-25T03:26:15.669Z,49.60
2018-03-25T03:27:15.658Z,49.60
2018-03-25T03:28:15.622Z,47.40
2018-03-25T03:29:15.605Z,46.10
2018-03-25T03:30:15.575Z,46.70
2018-03-25T03:31:15.558Z,48.70
2018-03-25T03:32:15.531Z,48.80
2018-03-25T03:33:15.512Z,48.60
2018-03-25T03:34:15.487Z,49.40
2018-03-25T03:35:15.463Z,46.50
2018-03-25T03:36:15.448Z,49.00
2018-03-25T03:37:15.418Z,51.60
2018-03-25T03:38:15.401Z,51.30
2018-03-25T03:39:15.373Z,53.00
2018-03-25T03:40:15.352Z,51.60
2018-03-25T03:41:15.329Z,52.00
2018-03-25T03:42:15.309Z,48.50
2018-03-25T03:43:15.283Z,47.10
2018-03-25T03:44:15.261Z,47.60
2018-03-25T03:45:15.240Z,46.40
2018-03-25T03:46:15.217Z,49.10
2018-03-25T03:47:15.195Z,46.70
2018-03-25T03:48:15.173Z,48.60
2018-03-25T03:49:15.153Z,46.60
2018-03-25T03:50:15.131Z,46.90
2018-03-25T03:51:15.108Z,46.10
2018-03-25T03:52:15.083Z,46.60
2018-03-25T03:53:15.060Z,49.90
2018-03-25T03:54:15.045Z,47.90
2018-03-25T03:55:15.018Z,49.70
2018-03-25T03:56:14.994Z,50.60
2018-03-25T03:57:14.968Z,46.90
2018-03-25T03:58:14.950Z,46.40
2018-03-25T03:59:14.935Z,46.40
2018-03-25T04:00:14.914Z,45.10
2018-03-25T04:01:14.879Z,46.40
2018-03-25T04:02:14.862Z,47.30
2018-03-25T04:03:14.837Z,47.20
2018-03-25T04:04:14.814Z,47.10
2018-03-25T04:05:14.792Z,48.00
2018-03-25T04:06:14.774Z,50.40
2018-03-25T04:07:14.745Z,50.00
2018-03-25T04:08:14.725Z,47.70
2018-03-25T04:09:14.704Z,46.50
2018-03-25T04:10:14.678Z,48.00
2018-03-25T04:11:14.661Z,50.70
2018-03-25T04:12:14.633Z,47.70
2018-03-25T04:13:14.616Z,45.20
2018-03-25T04:14:14.592Z,45.40
2018-03-25T04:15:14.568Z,45.00
2018-03-25T04:16:14.543Z,50.40
2018-03-25T04:17:14.520Z,50.50
2018-03-25T04:18:14.508Z,51.90
2018-03-25T04:19:14.482Z,51.30
2018-03-25T04:20:14.454Z,52.10
2018-03-25T04:21:14.431Z,52.60
2018-03-25T04:22:14.409Z,52.10
2018-03-25T04:23:14.394Z,48.80
2018-03-25T04:24:14.363Z,52.50
2018-03-25T04:25:14.344Z,47.80
2018-03-25T04:26:14.376Z,49.30
2018-03-25T04:27:14.296Z,48.50
2018-03-25T04:28:14.323Z,45.90
2018-03-25T04:29:14.250Z,47.90
2018-03-25T04:30:14.277Z,47.00
2018-03-25T04:31:14.211Z,46.40
2018-03-25T04:32:14.184Z,46.70
2018-03-25T04:33:14.159Z,45.90
2018-03-25T04:34:14.189Z,46.20
2018-03-25T04:35:14.116Z,45.90
2018-03-25T04:36:14.092Z,45.50
2018-03-25T04:37:14.068Z,44.90
2018-03-25T04:38:14.048Z,46.60
2018-03-25T04:39:14.029Z,46.30
2018-03-25T04:40:14.003Z,45.80
2018-03-25T04:41:13.979Z,44.30
2018-03-25T04:42:13.957Z,47.60
2018-03-25T04:43:13.937Z,46.60
2018-03-25T04:44:13.963Z,46.10
2018-03-25T04:45:13.890Z,47.40
2018-03-25T04:46:13.867Z,46.60
2018-03-25T04:47:13.847Z,43.60
2018-03-25T04:48:13.824Z,45.60
2018-03-25T04:49:13.813Z,46.80
2018-03-25T04:50:13.802Z,48.10
2018-03-25T04:51:13.759Z,46.80
2018-03-25T04:52:13.736Z,48.20
2018-03-25T04:53:13.708Z,46.50
2018-03-25T04:54:13.699Z,45.10
2018-03-25T04:55:13.664Z,45.20
2018-03-25T04:56:13.644Z,45.40
2018-03-25T04:57:13.621Z,47.30
2018-03-25T04:58:13.600Z,46.20
2018-03-25T04:59:13.574Z,45.40
2018-03-25T05:00:13.553Z,43.50
2018-03-25T05:01:13.529Z,42.20
2018-03-25T05:02:13.505Z,43.90
2018-03-25T05:03:13.487Z,42.10
2018-03-25T05:04:13.466Z,44.00
2018-03-25T05:05:13.444Z,45.30
2018-03-25T05:06:13.417Z,42.90
2018-03-25T05:07:13.393Z,43.70
2018-03-25T05:08:13.372Z,42.40
2018-03-25T05:09:13.401Z,43.60
2018-03-25T05:10:13.326Z,43.20
2018-03-25T05:11:13.304Z,44.60
2018-03-25T05:12:13.279Z,42.60
2018-03-25T05:13:13.259Z,43.30
2018-03-25T05:14:13.235Z,44.00
2018-03-25T05:15:13.211Z,43.90
2018-03-25T05:16:13.191Z,41.00
2018-03-25T05:17:13.166Z,42.20
2018-03-25T05:18:13.147Z,41.90
2018-03-25T05:19:13.123Z,41.60
2018-03-25T05:20:13.099Z,42.00
2018-03-25T05:21:13.077Z,40.00
2018-03-25T05:22:13.057Z,43.10
2018-03-25T05:23:13.033Z,42.90
2018-03-25T05:24:13.009Z,40.00
2018-03-25T05:25:12.989Z,42.90
2018-03-25T05:26:12.964Z,41.40
2018-03-25T05:27:12.948Z,42.40
2018-03-25T05:28:12.920Z,40.50
2018-03-25T05:29:12.899Z,40.70
2018-03-25T05:30:12.874Z,41.70
2018-03-25T05:31:12.851Z,39.70
2018-03-25T05:32:12.828Z,42.40
2018-03-25T05:33:12.806Z,41.80
2018-03-25T05:34:12.784Z,41.20
2018-03-25T05:35:12.763Z,40.80
2018-03-25T05:36:12.742Z,41.90
2018-03-25T05:37:12.733Z,40.90
2018-03-25T05:38:12.794Z,40.20
2018-03-25T05:39:12.673Z,40.00
2018-03-25T05:40:12.654Z,42.00
2018-03-25T05:41:12.633Z,39.20
2018-03-25T05:42:12.607Z,41.90
2018-03-25T05:43:12.585Z,42.40
2018-03-25T05:44:12.575Z,40.50
2018-03-25T05:45:12.538Z,40.50
2018-03-25T05:46:12.514Z,40.70
2018-03-25T05:47:12.528Z,41.00
2018-03-25T05:48:12.477Z,40.90
2018-03-25T05:49:12.448Z,39.80
2018-03-25T05:50:12.430Z,40.70
2018-03-25T05:51:12.404Z,39.70
2018-03-25T05:52:12.379Z,40.20
2018-03-25T05:53:12.365Z,40.70
2018-03-25T05:54:12.342Z,39.40
2018-03-25T05:55:12.312Z,39.60
2018-03-25T05:56:12.293Z,42.40
2018-03-25T05:57:12.276Z,40.50
2018-03-25T05:58:12.262Z,41.20
2018-03-25T05:59:12.223Z,42.20
2018-03-25T06:00:12.203Z,43.30
2018-03-25T06:01:12.178Z,40.70
2018-03-25T06:02:12.158Z,42.00
2018-03-25T06:03:12.142Z,43.50
2018-03-25T06:04:12.113Z,44.10
2018-03-25T06:05:12.094Z,42.90
2018-03-25T06:06:12.068Z,42.80
2018-03-25T06:07:12.102Z,41.60
2018-03-25T06:08:12.024Z,40.80
2018-03-25T06:09:12.000Z,38.30
2018-03-25T06:10:11.979Z,41.50
2018-03-25T06:11:11.960Z,41.50
2018-03-25T06:12:11.936Z,41.30
2018-03-25T06:13:11.913Z,42.50
2018-03-25T06:14:11.889Z,41.90
2018-03-25T06:15:11.871Z,42.40
2018-03-25T06:16:11.842Z,42.70
2018-03-25T06:17:11.823Z,43.40
2018-03-25T06:18:11.800Z,43.00
2018-03-25T06:19:11.783Z,43.10
2018-03-25T06:20:11.759Z,41.00
2018-03-25T06:21:11.732Z,43.60
2018-03-25T06:22:11.713Z,42.20
2018-03-25T06:23:11.697Z,41.50
2018-03-25T06:24:11.677Z,43.00
2018-03-25T06:25:11.645Z,43.30
2018-03-25T06:26:11.622Z,42.00
2018-03-25T06:27:11.601Z,44.00
2018-03-25T06:28:11.584Z,43.50
2018-03-25T06:29:11.562Z,43.60
2018-03-25T06:30:11.537Z,44.60
2018-03-25T06:31:11.514Z,39.90
2018-03-25T06:32:11.491Z,42.20
2018-03-25T06:33:11.468Z,41.80
2018-03-25T06:34:11.448Z,43.60
2018-03-25T06:35:11.429Z,40.40
2018-03-25T06:36:11.404Z,40.20
2018-03-25T06:37:11.384Z,41.90
2018-03-25T06:38:11.362Z,40.80
2018-03-25T06:39:11.342Z,40.90
2018-03-25T06:40:11.316Z,40.30
2018-03-25T06:41:11.294Z,43.30
2018-03-25T06:42:11.272Z,41.70
2018-03-25T06:43:11.254Z,42.40
2018-03-25T06:44:11.230Z,37.80
2018-03-25T06:45:11.218Z,38.90
2018-03-25T06:46:11.184Z,39.30
2018-03-25T06:47:11.166Z,40.40
2018-03-25T06:48:11.143Z,39.80
2018-03-25T06:49:11.120Z,40.90
2018-03-25T06:50:11.095Z,40.70
2018-03-25T06:51:11.078Z,39.10
2018-03-25T06:52:11.063Z,41.10
2018-03-25T06:53:11.030Z,38.50
2018-03-25T06:54:11.036Z,39.90
2018-03-25T06:55:10.995Z,40.00
2018-03-25T06:56:10.967Z,44.90
2018-03-25T06:57:10.945Z,42.10
2018-03-25T06:58:10.927Z,40.10
2018-03-25T06:59:10.903Z,41.10
2018-03-25T07:00:10.886Z,40.20
2018-03-25T07:01:10.856Z,41.20
2018-03-25T07:02:10.838Z,42.10
2018-03-25T07:03:10.814Z,40.00
2018-03-25T07:04:10.792Z,37.50
2018-03-25T07:05:10.772Z,39.20
2018-03-25T07:06:10.754Z,39.00
2018-03-25T07:07:10.730Z,36.70
2018-03-25T07:08:10.715Z,37.80
2018-03-25T07:09:10.685Z,41.30
2018-03-25T07:10:10.667Z,40.60
2018-03-25T07:11:10.643Z,40.40
2018-03-25T07:12:10.623Z,39.80
2018-03-25T07:13:10.602Z,37.20
2018-03-25T07:14:10.585Z,37.90
2018-03-25T07:15:10.558Z,37.10
2018-03-25T07:16:10.540Z,37.20
2018-03-25T07:17:10.572Z,38.30
2018-03-25T07:18:10.512Z,35.90
2018-03-25T07:19:10.474Z,37.10
2018-03-25T07:20:10.457Z,37.40
2018-03-25T07:21:10.555Z,36.30
2018-03-25T07:22:10.409Z,37.80
2018-03-25T07:23:10.396Z,38.30
2018-03-25T07:24:10.381Z,36.30
2018-03-25T07:25:10.348Z,36.30
2018-03-25T07:26:10.327Z,37.20
2018-03-25T07:27:10.303Z,36.30
2018-03-25T07:28:10.296Z,37.30
2018-03-25T07:29:10.263Z,37.80
2018-03-25T07:30:10.296Z,36.40
2018-03-25T07:31:10.224Z,35.50
2018-03-25T07:32:10.205Z,36.70
2018-03-25T07:33:10.183Z,39.00
2018-03-25T07:34:10.163Z,37.40
2018-03-25T07:35:10.145Z,36.00
2018-03-25T07:36:10.129Z,37.20
2018-03-25T07:37:10.097Z,36.20
2018-03-25T07:38:10.078Z,36.00
2018-03-25T07:39:10.056Z,38.00
2018-03-25T07:40:10.042Z,36.90
2018-03-25T07:41:10.017Z,37.90
2018-03-25T07:42:09.995Z,36.20
2018-03-25T07:43:09.982Z,35.30
2018-03-25T07:44:09.953Z,34.90
2018-03-25T07:45:09.936Z,34.80
2018-03-25T07:46:09.913Z,35.20
2018-03-25T07:47:09.896Z,33.70
2018-03-25T07:48:09.872Z,35.50
2018-03-25T07:49:09.850Z,34.10
2018-03-25T07:50:09.854Z,33.30
2018-03-25T07:51:09.813Z,36.30
2018-03-25T07:52:09.793Z,34.40
2018-03-25T07:53:09.772Z,33.40
2018-03-25T07:54:09.768Z,33.40
2018-03-25T07:55:09.733Z,35.10
2018-03-25T07:56:09.715Z,34.50
2018-03-25T07:57:09.692Z,33.30
2018-03-25T07:58:09.675Z,36.30
2018-03-25T07:59:09.655Z,33.00
2018-03-25T08:00:09.634Z,36.20
2018-03-25T08:01:09.614Z,35.00
2018-03-25T08:02:09.598Z,35.00
2018-03-25T08:03:09.580Z,35.50
2018-03-25T08:04:09.562Z,35.10
2018-03-25T08:05:09.544Z,32.70
2018-03-25T08:06:09.523Z,36.20
2018-03-25T08:07:09.508Z,34.20
2018-03-25T08:08:09.490Z,34.10
2018-03-25T08:09:09.514Z,34.30
2018-03-25T08:10:09.453Z,32.90
2018-03-25T08:11:09.438Z,33.40
2018-03-25T08:12:09.424Z,33.40
2018-03-25T08:13:09.404Z,33.50
2018-03-25T08:14:09.388Z,33.20
2018-03-25T08:15:09.378Z,33.10
2018-03-25T08:16:09.372Z,31.50
2018-03-25T08:17:09.344Z,31.80
2018-03-25T08:18:09.328Z,32.00
2018-03-25T08:19:09.315Z,31.70
2018-03-25T08:20:09.303Z,32.90
2018-03-25T08:21:09.281Z,34.00
2018-03-25T08:22:09.273Z,31.80
2018-03-25T08:23:09.254Z,32.40
2018-03-25T08:24:09.242Z,31.30
2018-03-25T08:25:09.226Z,30.30
2018-03-25T08:26:09.223Z,32.10
2018-03-25T08:27:09.204Z,32.60
2018-03-25T08:28:09.193Z,32.40
2018-03-25T08:29:09.177Z,32.60
2018-03-25T08:30:09.170Z,34.60
2018-03-25T08:31:09.154Z,35.10
2018-03-25T08:32:09.145Z,34.10
2018-03-25T08:33:09.132Z,32.10
2018-03-25T08:34:09.123Z,34.00
2018-03-25T08:35:09.109Z,34.20
2018-03-25T08:36:09.099Z,33.40
2018-03-25T08:37:09.094Z,34.60
2018-03-25T08:38:09.077Z,34.20
2018-03-25T08:39:09.079Z,34.40
2018-03-25T08:40:09.059Z,35.50
2018-03-25T08:41:09.054Z,32.70
2018-03-25T08:42:09.046Z,34.10
2018-03-25T08:43:09.031Z,34.00
2018-03-25T08:44:09.023Z,33.90
2018-03-25T08:45:09.011Z,33.00
2018-03-25T08:46:09.017Z,35.00
2018-03-25T08:47:09.008Z,32.70
2018-03-25T08:48:08.992Z,31.60
2018-03-25T08:49:08.982Z,31.90
2018-03-25T08:50:08.984Z,31.60
2018-03-25T08:51:08.966Z,31.20
2018-03-25T08:52:08.960Z,33.10
2018-03-25T08:53:08.952Z,32.70
2018-03-25T08:54:08.945Z,32.90
2018-03-25T08:55:08.937Z,34.70
2018-03-25T08:56:08.936Z,32.00
2018-03-25T08:57:08.948Z,32.10
2018-03-25T08:58:08.915Z,32.60
2018-03-25T08:59:08.916Z,30.90
2018-03-25T09:00:08.907Z,30.80
2018-03-25T09:01:08.914Z,33.30
2018-03-25T09:02:08.894Z,33.10
2018-03-25T09:03:08.890Z,33.10
2018-03-25T09:04:08.887Z,32.10
2018-03-25T09:05:08.883Z,32.60
2018-03-25T09:06:08.876Z,31.60
2018-03-25T09:07:08.874Z,32.00
2018-03-25T09:08:08.863Z,32.80
2018-03-25T09:09:08.875Z,31.80
2018-03-25T09:10:08.859Z,31.80
2018-03-25T09:11:08.856Z,31.80
2018-03-25T09:12:08.850Z,31.00
2018-03-25T09:13:08.849Z,32.10
2018-03-25T09:14:08.846Z,31.60
2018-03-25T09:15:08.840Z,32.70
2018-03-25T09:16:08.838Z,32.20
2018-03-25T09:17:08.833Z,29.80
2018-03-25T09:18:08.837Z,31.20
2018-03-25T09:19:08.931Z,30.70
2018-03-25T09:20:08.830Z,31.50
2018-03-25T09:21:08.828Z,31.50
2018-03-25T09:22:08.853Z,31.60
2018-03-25T09:23:08.819Z,31.80
2018-03-25T09:24:08.818Z,32.50
2018-03-25T09:25:08.824Z,31.10
2018-03-25T09:26:08.867Z,31.90
2018-03-25T09:27:08.819Z,32.50
2018-03-25T09:28:08.808Z,30.60
2018-03-25T09:29:08.807Z,30.60
2018-03-25T09:30:08.810Z,31.80
2018-03-25T09:31:08.813Z,31.30
2018-03-25T09:32:08.800Z,31.30
2018-03-25T09:33:08.801Z,31.70
2018-03-25T09:34:08.801Z,31.30
2018-03-25T09:35:08.807Z,31.50
2018-03-25T09:36:08.793Z,31.10
2018-03-25T09:37:08.793Z,32.30
2018-03-25T09:38:08.791Z,32.70
2018-03-25T09:39:08.795Z,30.30
2018-03-25T09:40:08.790Z,31.80
2018-03-25T09:41:08.785Z,31.50
2018-03-25T09:42:08.787Z,31.50
2018-03-25T09:43:08.783Z,31.00
2018-03-25T09:44:08.781Z,30.80
2018-03-25T09:45:08.780Z,32.60
2018-03-25T09:46:08.788Z,32.90
2018-03-25T09:47:08.779Z,31.00
2018-03-25T09:48:08.779Z,30.40
2018-03-25T09:49:08.776Z,31.90
2018-03-25T09:50:08.773Z,31.80
2018-03-25T09:51:08.808Z,30.70
2018-03-25T09:52:08.770Z,32.70
2018-03-25T09:53:08.767Z,31.60
2018-03-25T09:54:08.767Z,32.40
2018-03-25T09:55:08.768Z,32.60
2018-03-25T09:56:08.765Z,32.20
2018-03-25T09:57:08.760Z,31.00
2018-03-25T09:58:08.757Z,30.20
2018-03-25T09:59:08.757Z,31.20
2018-03-25T10:00:08.754Z,31.00
2018-03-25T10:01:08.768Z,31.70
2018-03-25T10:02:08.753Z,32.20
2018-03-25T10:03:08.752Z,31.00
2018-03-25T10:04:08.752Z,31.40
2018-03-25T10:05:08.761Z,31.90
2018-03-25T10:06:08.759Z,31.60
2018-03-25T10:07:08.753Z,32.20
2018-03-25T10:08:08.753Z,32.70
2018-03-25T10:09:08.740Z,31.70
2018-03-25T10:10:08.737Z,31.70
2018-03-25T10:11:08.732Z,31.80
2018-03-25T10:12:08.729Z,31.50
2018-03-25T10:13:08.733Z,31.60
2018-03-25T10:14:08.731Z,30.80
2018-03-25T10:15:08.724Z,32.60
2018-03-25T10:16:08.724Z,31.30
2018-03-25T10:17:08.725Z,30.30
2018-03-25T10:18:08.715Z,30.50
2018-03-25T10:19:08.714Z,30.00
2018-03-25T10:20:08.715Z,30.80
2018-03-25T10:21:08.706Z,31.10
2018-03-25T10:22:08.705Z,32.80
2018-03-25T10:23:08.703Z,31.80
2018-03-25T10:24:08.703Z,30.60
2018-03-25T10:25:08.704Z,31.30
2018-03-25T10:26:08.701Z,30.50
2018-03-25T10:27:08.696Z,31.60
2018-03-25T10:28:08.691Z,32.10
2018-03-25T10:29:08.693Z,32.50
2018-03-25T10:30:08.691Z,30.70
2018-03-25T10:31:08.687Z,30.80
2018-03-25T10:32:08.691Z,31.30
2018-03-25T10:33:08.694Z,30.60
2018-03-25T10:34:08.691Z,31.20
2018-03-25T10:35:08.784Z,31.30
2018-03-25T10:36:08.683Z,30.20
2018-03-25T10:37:08.684Z,31.40
2018-03-25T10:38:08.681Z,30.90
2018-03-25T10:39:08.684Z,30.80
2018-03-25T10:40:08.684Z,31.00
2018-03-25T10:41:08.687Z,30.60
2018-03-25T10:42:08.681Z,30.30
2018-03-25T10:43:08.679Z,30.10
2018-03-25T10:44:08.685Z,30.20
2018-03-25T10:45:08.686Z,30.00
2018-03-25T10:46:08.678Z,30.20
2018-03-25T10:47:08.680Z,30.60
2018-03-25T10:48:08.681Z,29.70
2018-03-25T10:49:08.684Z,27.90
2018-03-25T10:50:08.683Z,29.30
2018-03-25T10:51:08.684Z,29.40
2018-03-25T10:52:08.690Z,29.40
2018-03-25T10:53:08.695Z,29.70
2018-03-25T10:54:08.692Z,30.00
2018-03-25T10:55:08.694Z,28.30
2018-03-25T10:56:08.691Z,28.60
2018-03-25T10:57:08.692Z,28.20
2018-03-25T10:58:08.691Z,29.00
2018-03-25T10:59:08.692Z,29.20
2018-03-25T11:00:08.693Z,27.90
2018-03-25T11:01:08.696Z,28.40
2018-03-25T11:02:08.699Z,30.10
2018-03-25T11:03:08.700Z,27.00
2018-03-25T11:04:08.700Z,31.90
2018-03-25T11:05:08.701Z,27.50
2018-03-25T11:06:08.701Z,26.90
2018-03-25T11:07:08.705Z,26.40
2018-03-25T11:08:08.701Z,28.90
2018-03-25T11:09:08.710Z,29.20
2018-03-25T11:10:08.705Z,27.60
2018-03-25T11:11:08.708Z,27.50
2018-03-25T11:12:08.704Z,27.80
2018-03-25T11:13:08.704Z,27.40
2018-03-25T11:14:08.710Z,26.10
2018-03-25T11:15:08.716Z,26.50
2018-03-25T11:16:08.714Z,25.50
2018-03-25T11:17:08.711Z,25.50
2018-03-25T11:18:08.709Z,25.00
2018-03-25T11:19:08.704Z,25.10
2018-03-25T11:20:08.713Z,25.10
2018-03-25T11:21:08.712Z,26.40
2018-03-25T11:22:08.705Z,25.70
2018-03-25T11:23:08.710Z,26.70
2018-03-25T11:24:08.705Z,26.30
2018-03-25T11:25:08.704Z,26.80
2018-03-25T11:26:08.704Z,25.50
2018-03-25T11:27:08.708Z,25.00
2018-03-25T11:28:08.703Z,25.40
2018-03-25T11:29:08.699Z,26.10
2018-03-25T11:30:08.699Z,26.30
2018-03-25T11:31:08.698Z,25.90
2018-03-25T11:32:08.710Z,24.70
2018-03-25T11:33:08.697Z,25.90
2018-03-25T11:34:08.695Z,25.60
2018-03-25T11:35:08.695Z,25.40
2018-03-25T11:36:08.691Z,25.80
2018-03-25T11:37:08.691Z,26.30
2018-03-25T11:38:08.689Z,26.10
2018-03-25T11:39:08.692Z,24.60
2018-03-25T11:40:08.736Z,26.20
2018-03-25T11:41:08.685Z,25.70
2018-03-25T11:42:08.682Z,26.20
2018-03-25T11:43:08.683Z,25.80
2018-03-25T11:44:08.685Z,26.40
2018-03-25T11:45:08.683Z,25.80
2018-03-25T11:46:08.676Z,25.70
2018-03-25T11:47:08.684Z,25.70
2018-03-25T11:48:08.679Z,26.60
2018-03-25T11:49:08.675Z,27.00
2018-03-25T11:50:08.673Z,27.10
2018-03-25T11:51:08.672Z,26.40
2018-03-25T11:52:08.675Z,26.80
2018-03-25T11:53:08.717Z,25.70
2018-03-25T11:54:08.667Z,26.30
2018-03-25T11:55:08.663Z,26.40
2018-03-25T11:56:08.663Z,26.30
2018-03-25T11:57:08.663Z,25.00
2018-03-25T11:58:08.659Z,25.90
2018-03-25T11:59:08.670Z,27.20
2018-03-25T12:00:08.664Z,25.20
2018-03-25T12:01:08.679Z,25.60
2018-03-25T12:02:08.661Z,25.70
2018-03-25T12:03:08.656Z,25.40
2018-03-25T12:04:08.654Z,26.40
2018-03-25T12:05:08.648Z,26.70
2018-03-25T12:06:08.655Z,25.40
2018-03-25T12:07:08.649Z,26.30
2018-03-25T12:08:08.644Z,27.60
2018-03-25T12:09:08.642Z,26.50
2018-03-25T12:10:08.641Z,26.40
2018-03-25T12:11:08.676Z,25.80
2018-03-25T12:12:08.641Z,25.80
2018-03-25T12:13:08.643Z,26.20
2018-03-25T12:14:08.641Z,25.60
2018-03-25T12:15:08.635Z,25.90
2018-03-25T12:16:08.637Z,25.80
2018-03-25T12:17:08.632Z,26.60
2018-03-25T12:18:08.628Z,25.50
2018-03-25T12:19:08.635Z,25.20
2018-03-25T12:20:08.638Z,24.70
2018-03-25T12:21:08.626Z,26.10
2018-03-25T12:22:08.635Z,24.70
2018-03-25T12:23:08.626Z,26.30
2018-03-25T12:24:08.630Z,25.50
2018-03-25T12:25:08.622Z,27.20
2018-03-25T12:26:08.619Z,26.20
2018-03-25T12:27:08.631Z,26.20
2018-03-25T12:28:08.632Z,27.40
2018-03-25T12:29:08.624Z,25.60
2018-03-25T12:30:08.620Z,25.00
2018-03-25T12:31:08.620Z,24.70
2018-03-25T12:32:08.617Z,24.50
2018-03-25T12:33:08.669Z,25.20
2018-03-25T12:34:08.622Z,25.20
2018-03-25T12:35:08.617Z,25.40
2018-03-25T12:36:08.612Z,24.80
2018-03-25T12:37:08.611Z,24.20
2018-03-25T12:38:08.603Z,25.90
2018-03-25T12:39:08.604Z,25.00
2018-03-25T12:40:08.601Z,25.70
2018-03-25T12:41:08.600Z,25.90
2018-03-25T12:42:08.652Z,24.30
2018-03-25T12:43:08.648Z,25.40
2018-03-25T12:44:08.597Z,25.80
2018-03-25T12:45:08.597Z,26.10
2018-03-25T12:46:08.593Z,26.30
2018-03-25T12:47:08.592Z,26.30
2018-03-25T12:48:08.592Z,26.40
2018-03-25T12:49:08.587Z,25.70
2018-03-25T12:50:08.584Z,25.70
2018-03-25T12:51:08.585Z,25.80
2018-03-25T12:52:08.584Z,26.20